sensor_id;sensor_type;location;lat;lon;timestamp;pressure;altitude;pressure_sealevel;temperature;humidity
30714;BME280;17465;47.934;33.430;2023-04-01T00:01:39;57276.42;;;-140.43;100.00
30714;BME280;17465;47.934;33.430;2023-04-01T00:04:10;57247.82;;;-140.43;100.00
30714;BME280;17465;47.934;33.430;2023-04-01T00:06:41;57270.06;;;-140.43;100.00
30714;BME280;17465;47.934;33.430;2023-04-01T00:09:11;57263.71;;;-140.43;100.00
30714;BME280;17465;47.934;33.430;2023-04-01T00:11:43;57252.06;;;-140.43;100.00
30714;BME280;17465;47.934;33.430;2023-04-01T00:14:13;57264.77;;;-140.43;100.00
30714;BME280;17465;47.934;33.430;2023-04-01T00:16:44;57239.35;;;-140.43;100.00
30714;BME280;17465;47.934;33.430;2023-04-01T00:19:15;57241.47;;;-140.43;100.00
30714;BME280;17465;47.934;33.430;2023-04-01T00:21:45;57287.01;;;-140.43;100.00
30714;BME280;17465;47.934;33.430;2023-04-01T00:24:16;57258.41;;;-140.43;100.00
30714;BME280;17465;47.934;33.430;2023-04-01T00:26:46;57281.71;;;-140.43;100.00
30714;BME280;17465;47.934;33.430;2023-04-01T00:29:17;57264.77;;;-140.43;100.00
30714;BME280;17465;47.934;33.430;2023-04-01T00:31:47;57256.30;;;-140.43;100.00
30714;BME280;17465;47.934;33.430;2023-04-01T00:34:18;57270.06;;;-140.43;100.00
30714;BME280;17465;47.934;33.430;2023-04-01T00:36:49;57259.47;;;-140.43;100.00
30714;BME280;17465;47.934;33.430;2023-04-01T00:42:11;57264.77;;;-140.43;100.00
30714;BME280;17465;47.934;33.430;2023-04-01T00:44:42;57267.95;;;-140.43;100.00
30714;BME280;17465;47.934;33.430;2023-04-01T00:47:12;57267.95;;;-140.43;100.00
30714;BME280;17465;47.934;33.430;2023-04-01T00:49:45;57270.06;;;-140.43;100.00
30714;BME280;17465;47.934;33.430;2023-04-01T00:52:18;57270.06;;;-140.43;100.00
30714;BME280;17465;47.934;33.430;2023-04-01T00:54:53;57237.23;;;-140.43;100.00
30714;BME280;17465;47.934;33.430;2023-04-01T00:57:28;57259.47;;;-140.43;100.00
30714;BME280;17465;47.934;33.430;2023-04-01T00:59:59;57270.06;;;-140.43;100.00
30714;BME280;17465;47.934;33.430;2023-04-01T01:02:31;57236.18;;;-140.43;100.00
30714;BME280;17465;47.934;33.430;2023-04-01T01:05:04;57253.12;;;-140.43;100.00
30714;BME280;17465;47.934;33.430;2023-04-01T01:07:46;57293.36;;;-140.43;100.00
30714;BME280;17465;47.934;33.430;2023-04-01T01:10:31;57275.36;;;-140.43;100.00
30714;BME280;17465;47.934;33.430;2023-04-01T01:15:59;57263.71;;;-140.43;100.00
30714;BME280;17465;47.934;33.430;2023-04-01T01:18:52;57247.82;;;-140.43;100.00
30714;BME280;17465;47.934;33.430;2023-04-01T01:22:32;57259.47;;;-140.43;100.00
30714;BME280;17465;47.934;33.430;2023-04-01T01:27:10;57295.48;;;-140.43;100.00
30714;BME280;17465;47.934;33.430;2023-04-01T01:35:43;57253.12;;;-140.43;100.00
30714;BME280;17465;47.934;33.430;2023-04-01T01:38:16;57253.12;;;-140.43;100.00
30714;BME280;17465;47.934;33.430;2023-04-01T01:40:49;57249.95;;;-140.43;100.00
30714;BME280;17465;47.934;33.430;2023-04-01T01:43:26;57260.54;;;-140.43;100.00
30714;BME280;17465;47.934;33.430;2023-04-01T01:46:00;57272.18;;;-140.43;100.00
30714;BME280;17465;47.934;33.430;2023-04-01T01:48:33;57272.18;;;-140.43;100.00
30714;BME280;17465;47.934;33.430;2023-04-01T01:51:05;57258.41;;;-140.43;100.00
30714;BME280;17465;47.934;33.430;2023-04-01T01:53:36;57257.36;;;-140.43;100.00
30714;BME280;17465;47.934;33.430;2023-04-01T01:56:07;57252.06;;;-140.43;100.00
30714;BME280;17465;47.934;33.430;2023-04-01T01:58:43;57254.18;;;-140.43;100.00
30714;BME280;17465;47.934;33.430;2023-04-01T02:01:24;57280.66;;;-140.43;100.00
30714;BME280;17465;47.934;33.430;2023-04-01T02:03:55;57280.66;;;-140.43;100.00
30714;BME280;17465;47.934;33.430;2023-04-01T02:06:29;57248.88;;;-140.43;100.00
30714;BME280;17465;47.934;33.430;2023-04-01T02:09:04;57248.88;;;-140.43;100.00
30714;BME280;17465;47.934;33.430;2023-04-01T02:14:17;57294.42;;;-140.43;100.00
30714;BME280;17465;47.934;33.430;2023-04-01T02:17:02;57265.83;;;-140.43;100.00
30714;BME280;17465;47.934;33.430;2023-04-01T02:19:38;57272.18;;;-140.43;100.00
30714;BME280;17465;47.934;33.430;2023-04-01T02:22:11;57259.47;;;-140.43;100.00
30714;BME280;17465;47.934;33.430;2023-04-01T02:24:42;57259.47;;;-140.43;100.00
30714;BME280;17465;47.934;33.430;2023-04-01T02:27:14;57260.54;;;-140.43;100.00
30714;BME280;17465;47.934;33.430;2023-04-01T02:29:45;57270.06;;;-140.43;100.00
30714;BME280;17465;47.934;33.430;2023-04-01T02:32:18;57275.36;;;-140.43;100.00
30714;BME280;17465;47.934;33.430;2023-04-01T02:34:50;57290.18;;;-140.43;100.00
30714;BME280;17465;47.934;33.430;2023-04-01T02:37:21;57290.18;;;-140.43;100.00
30714;BME280;17465;47.934;33.430;2023-04-01T02:39:52;57272.18;;;-140.43;100.00
30714;BME280;17465;47.934;33.430;2023-04-01T02:42:22;57277.48;;;-140.43;100.00
30714;BME280;17465;47.934;33.430;2023-04-01T02:44:53;57256.30;;;-140.43;100.00
30714;BME280;17465;47.934;33.430;2023-04-01T02:47:24;57272.18;;;-140.43;100.00
30714;BME280;17465;47.934;33.430;2023-04-01T02:49:54;57258.41;;;-140.43;100.00
30714;BME280;17465;47.934;33.430;2023-04-01T02:52:26;57259.47;;;-140.43;100.00
30714;BME280;17465;47.934;33.430;2023-04-01T02:54:57;57285.95;;;-140.43;100.00
30714;BME280;17465;47.934;33.430;2023-04-01T02:57:28;57271.13;;;-140.43;100.00
30714;BME280;17465;47.934;33.430;2023-04-01T02:59:59;57255.24;;;-140.43;100.00
30714;BME280;17465;47.934;33.430;2023-04-01T03:02:30;57255.24;;;-140.43;100.00
30714;BME280;17465;47.934;33.430;2023-04-01T03:05:01;57267.95;;;-140.43;100.00
30714;BME280;17465;47.934;33.430;2023-04-01T03:07:32;57271.13;;;-140.43;100.00
30714;BME280;17465;47.934;33.430;2023-04-01T03:10:03;57261.59;;;-140.43;100.00
30714;BME280;17465;47.934;33.430;2023-04-01T03:12:34;57266.89;;;-140.43;100.00
30714;BME280;17465;47.934;33.430;2023-04-01T03:15:05;57266.89;;;-140.43;100.00
30714;BME280;17465;47.934;33.430;2023-04-01T03:17:39;57262.65;;;-140.43;100.00
30714;BME280;17465;47.934;33.430;2023-04-01T03:20:10;57274.30;;;-140.43;100.00
30714;BME280;17465;47.934;33.430;2023-04-01T03:22:42;57274.30;;;-140.43;100.00
30714;BME280;17465;47.934;33.430;2023-04-01T03:25:13;57274.30;;;-140.43;100.00
30714;BME280;17465;47.934;33.430;2023-04-01T03:27:43;57282.77;;;-140.43;100.00
30714;BME280;17465;47.934;33.430;2023-04-01T03:30:17;57282.77;;;-140.43;100.00
30714;BME280;17465;47.934;33.430;2023-04-01T03:32:48;57257.36;;;-140.43;100.00
30714;BME280;17465;47.934;33.430;2023-04-01T03:35:19;57266.89;;;-140.43;100.00
30714;BME280;17465;47.934;33.430;2023-04-01T03:37:51;57285.95;;;-140.43;100.00
30714;BME280;17465;47.934;33.430;2023-04-01T03:40:23;57285.95;;;-140.43;100.00
30714;BME280;17465;47.934;33.430;2023-04-01T03:42:54;57264.77;;;-140.43;100.00
30714;BME280;17465;47.934;33.430;2023-04-01T03:45:25;57283.83;;;-140.43;100.00
30714;BME280;17465;47.934;33.430;2023-04-01T03:47:56;57277.48;;;-140.43;100.00
30714;BME280;17465;47.934;33.430;2023-04-01T03:50:27;57259.47;;;-140.43;100.00
30714;BME280;17465;47.934;33.430;2023-04-01T03:52:59;57276.42;;;-140.43;100.00
30714;BME280;17465;47.934;33.430;2023-04-01T03:55:30;57266.89;;;-140.43;100.00
30714;BME280;17465;47.934;33.430;2023-04-01T03:58:06;57298.66;;;-140.43;100.00
30714;BME280;17465;47.934;33.430;2023-04-01T04:00:38;57285.95;;;-140.43;100.00
30714;BME280;17465;47.934;33.430;2023-04-01T04:03:09;57295.48;;;-140.43;100.00
30714;BME280;17465;47.934;33.430;2023-04-01T04:05:47;57288.07;;;-140.43;100.00
30714;BME280;17465;47.934;33.430;2023-04-01T04:08:19;57262.65;;;-140.43;100.00
30714;BME280;17465;47.934;33.430;2023-04-01T04:10:56;57240.41;;;-140.43;100.00
30714;BME280;17465;47.934;33.430;2023-04-01T04:13:27;57267.95;;;-140.43;100.00
30714;BME280;17465;47.934;33.430;2023-04-01T04:15:58;57235.12;;;-140.43;100.00
30714;BME280;17465;47.934;33.430;2023-04-01T04:18:29;57272.18;;;-140.43;100.00
30714;BME280;17465;47.934;33.430;2023-04-01T04:21:00;57279.59;;;-140.43;100.00
30714;BME280;17465;47.934;33.430;2023-04-01T04:23:31;57279.59;;;-140.43;100.00
30714;BME280;17465;47.934;33.430;2023-04-01T04:26:07;57263.71;;;-140.43;100.00
30714;BME280;17465;47.934;33.430;2023-04-01T04:28:38;57263.71;;;-140.43;100.00
30714;BME280;17465;47.934;33.430;2023-04-01T04:31:10;57243.59;;;-140.43;100.00
30714;BME280;17465;47.934;33.430;2023-04-01T04:33:43;57290.18;;;-140.43;100.00
30714;BME280;17465;47.934;33.430;2023-04-01T04:36:13;57257.36;;;-140.43;100.00
30714;BME280;17465;47.934;33.430;2023-04-01T04:38:45;57245.71;;;-140.43;100.00
30714;BME280;17465;47.934;33.430;2023-04-01T04:41:17;57245.71;;;-140.43;100.00
30714;BME280;17465;47.934;33.430;2023-04-01T04:43:53;57259.47;;;-140.43;100.00
30714;BME280;17465;47.934;33.430;2023-04-01T04:46:25;57279.59;;;-140.43;100.00
30714;BME280;17465;47.934;33.430;2023-04-01T04:48:55;57279.59;;;-140.43;100.00
30714;BME280;17465;47.934;33.430;2023-04-01T04:51:26;57273.24;;;-140.43;100.00
30714;BME280;17465;47.934;33.430;2023-04-01T04:53:57;57283.83;;;-140.43;100.00
30714;BME280;17465;47.934;33.430;2023-04-01T04:56:28;57289.13;;;-140.43;100.00
30714;BME280;17465;47.934;33.430;2023-04-01T04:59:01;57266.89;;;-140.43;100.00
30714;BME280;17465;47.934;33.430;2023-04-01T05:01:31;57282.77;;;-140.43;100.00
30714;BME280;17465;47.934;33.430;2023-04-01T05:04:02;57296.54;;;-140.43;100.00
30714;BME280;17465;47.934;33.430;2023-04-01T05:06:32;57296.54;;;-140.43;100.00
30714;BME280;17465;47.934;33.430;2023-04-01T05:09:03;57273.24;;;-140.43;100.00
30714;BME280;17465;47.934;33.430;2023-04-01T05:11:34;57258.41;;;-140.43;100.00
30714;BME280;17465;47.934;33.430;2023-04-01T05:14:14;57281.71;;;-140.43;100.00
30714;BME280;17465;47.934;33.430;2023-04-01T05:16:45;57281.71;;;-140.43;100.00
30714;BME280;17465;47.934;33.430;2023-04-01T05:19:15;57270.06;;;-140.43;100.00
30714;BME280;17465;47.934;33.430;2023-04-01T05:21:47;57273.24;;;-140.43;100.00
30714;BME280;17465;47.934;33.430;2023-04-01T05:24:20;57262.65;;;-140.43;100.00
30714;BME280;17465;47.934;33.430;2023-04-01T05:26:51;57262.65;;;-140.43;100.00
30714;BME280;17465;47.934;33.430;2023-04-01T05:29:25;57279.59;;;-140.43;100.00
30714;BME280;17465;47.934;33.430;2023-04-01T05:31:56;57247.82;;;-140.43;100.00
30714;BME280;17465;47.934;33.430;2023-04-01T05:34:26;57235.12;;;-140.43;100.00
30714;BME280;17465;47.934;33.430;2023-04-01T05:36:57;57291.25;;;-140.43;100.00
30714;BME280;17465;47.934;33.430;2023-04-01T05:39:27;57256.30;;;-140.43;100.00
30714;BME280;17465;47.934;33.430;2023-04-01T05:41:58;57263.71;;;-140.43;100.00
30714;BME280;17465;47.934;33.430;2023-04-01T05:44:31;57280.66;;;-140.43;100.00
30714;BME280;17465;47.934;33.430;2023-04-01T05:47:03;57280.66;;;-140.43;100.00
30714;BME280;17465;47.934;33.430;2023-04-01T05:49:34;57283.83;;;-140.43;100.00
30714;BME280;17465;47.934;33.430;2023-04-01T05:52:05;57307.13;;;-140.43;100.00
30714;BME280;17465;47.934;33.430;2023-04-01T05:54:36;57255.24;;;-140.43;100.00
30714;BME280;17465;47.934;33.430;2023-04-01T05:57:06;57279.59;;;-140.43;100.00
30714;BME280;17465;47.934;33.430;2023-04-01T05:59:43;57270.06;;;-140.43;100.00
30714;BME280;17465;47.934;33.430;2023-04-01T06:02:56;57272.18;;;-140.43;100.00
30714;BME280;17465;47.934;33.430;2023-04-01T06:05:56;57292.30;;;-140.43;100.00
30714;BME280;17465;47.934;33.430;2023-04-01T06:34:26;57260.54;;;-140.43;100.00
30714;BME280;17465;47.934;33.430;2023-04-01T06:39:59;57267.95;;;-140.43;100.00
30714;BME280;17465;47.934;33.430;2023-04-01T06:42:22;57267.95;;;-140.43;100.00
30714;BME280;17465;47.934;33.430;2023-04-01T06:54:18;57279.59;;;-140.43;100.00
30714;BME280;17465;47.934;33.430;2023-04-01T06:56:46;57277.48;;;-140.43;100.00
30714;BME280;17465;47.934;33.430;2023-04-01T06:59:22;57251.00;;;-140.43;100.00
30714;BME280;17465;47.934;33.430;2023-04-01T07:02:27;57289.13;;;-140.43;100.00
30714;BME280;17465;47.934;33.430;2023-04-01T07:04:59;57289.13;;;-140.43;100.00
30714;BME280;17465;47.934;33.430;2023-04-01T07:07:36;57279.59;;;-140.43;100.00
30714;BME280;17465;47.934;33.430;2023-04-01T07:13:10;57245.71;;;-140.43;100.00
30714;BME280;17465;47.934;33.430;2023-04-01T07:15:41;57272.18;;;-140.43;100.00
30714;BME280;17465;47.934;33.430;2023-04-01T07:18:18;57270.06;;;-140.43;100.00
30714;BME280;17465;47.934;33.430;2023-04-01T07:20:49;57261.59;;;-140.43;100.00
30714;BME280;17465;47.934;33.430;2023-04-01T07:23:29;57261.59;;;-140.43;100.00
30714;BME280;17465;47.934;33.430;2023-04-01T07:26:21;57257.36;;;-140.43;100.00
30714;BME280;17465;47.934;33.430;2023-04-01T07:28:49;57273.24;;;-140.43;100.00
30714;BME280;17465;47.934;33.430;2023-04-01T07:34:25;57260.54;;;-140.43;100.00
30714;BME280;17465;47.934;33.430;2023-04-01T07:37:15;57274.30;;;-140.43;100.00
30714;BME280;17465;47.934;33.430;2023-04-01T07:45:38;57263.71;;;-140.43;100.00
30714;BME280;17465;47.934;33.430;2023-04-01T07:51:09;57257.36;;;-140.43;100.00
30714;BME280;17465;47.934;33.430;2023-04-01T07:53:53;57264.77;;;-140.43;100.00
30714;BME280;17465;47.934;33.430;2023-04-01T08:02:33;57276.42;;;-140.43;100.00
30714;BME280;17465;47.934;33.430;2023-04-01T08:08:09;57266.89;;;-140.43;100.00
30714;BME280;17465;47.934;33.430;2023-04-01T08:10:56;57266.89;;;-140.43;100.00
30714;BME280;17465;47.934;33.430;2023-04-01T08:19:27;57238.29;;;-140.43;100.00
30714;BME280;17465;47.934;33.430;2023-04-01T08:21:56;57274.30;;;-140.43;100.00
30714;BME280;17465;47.934;33.430;2023-04-01T08:24:42;57274.30;;;-140.43;100.00
30714;BME280;17465;47.934;33.430;2023-04-01T08:30:06;56358.36;;;-140.43;100.00
30714;BME280;17465;47.934;33.430;2023-04-01T08:32:40;57269.00;;;-140.43;100.00
30714;BME280;17465;47.934;33.430;2023-04-01T08:37:58;57266.89;;;-140.43;100.00
30714;BME280;17465;47.934;33.430;2023-04-01T08:47:09;57271.13;;;-140.43;100.00
30714;BME280;17465;47.934;33.430;2023-04-01T08:50:06;57276.42;;;-140.43;100.00
30714;BME280;17465;47.934;33.430;2023-04-01T08:53:11;57278.54;;;-140.43;100.00
30714;BME280;17465;47.934;33.430;2023-04-01T09:01:26;57255.24;;;-140.43;100.00
30714;BME280;17465;47.934;33.430;2023-04-01T09:15:35;57281.71;;;-140.43;100.00
30714;BME280;17465;47.934;33.430;2023-04-01T09:21:11;57297.60;;;-140.43;100.00
30714;BME280;17465;47.934;33.430;2023-04-01T09:36:03;57260.54;;;-140.43;100.00
30714;BME280;17465;47.934;33.430;2023-04-01T09:38:30;57281.71;;;-140.43;100.00
30714;BME280;17465;47.934;33.430;2023-04-01T09:43:58;57267.95;;;-140.43;100.00
30714;BME280;17465;47.934;33.430;2023-04-01T09:46:57;57292.30;;;-140.43;100.00
30714;BME280;17465;47.934;33.430;2023-04-01T09:49:50;57282.77;;;-140.43;100.00
30714;BME280;17465;47.934;33.430;2023-04-01T09:52:31;57282.77;;;-140.43;100.00
30714;BME280;17465;47.934;33.430;2023-04-01T10:09:40;57264.77;;;-140.43;100.00
30714;BME280;17465;47.934;33.430;2023-04-01T10:12:42;57263.71;;;-140.43;100.00
30714;BME280;17465;47.934;33.430;2023-04-01T10:18:39;57283.83;;;-140.43;100.00
30714;BME280;17465;47.934;33.430;2023-04-01T10:24:25;56433.53;;;-140.43;100.00
30714;BME280;17465;47.934;33.430;2023-04-01T10:27:10;57256.30;;;-140.43;100.00
30714;BME280;17465;47.934;33.430;2023-04-01T10:56:42;57262.65;;;-140.43;100.00
30714;BME280;17465;47.934;33.430;2023-04-01T10:59:28;57309.25;;;-140.43;100.00
30714;BME280;17465;47.934;33.430;2023-04-01T11:05:35;57244.65;;;-140.43;100.00
30714;BME280;17465;47.934;33.430;2023-04-01T11:14:17;57282.77;;;-140.43;100.00
30714;BME280;17465;47.934;33.430;2023-04-01T11:19:58;57279.59;;;-140.43;100.00
30714;BME280;17465;47.934;33.430;2023-04-01T11:46:15;57284.89;;;-140.43;95.87
30714;BME280;17465;47.934;33.430;2023-04-01T11:48:55;57284.89;;;-140.43;95.87
30714;BME280;17465;47.934;33.430;2023-04-01T11:51:48;57279.59;;;-140.43;95.87
30714;BME280;17465;47.934;33.430;2023-04-01T11:54:48;57309.25;;;-140.43;94.23
30714;BME280;17465;47.934;33.430;2023-04-01T12:03:36;57280.66;;;-140.43;98.75
30714;BME280;17465;47.934;33.430;2023-04-01T12:14:27;57289.13;;;-140.43;99.51
30714;BME280;17465;47.934;33.430;2023-04-01T12:17:12;57305.01;;;-140.43;97.50
30714;BME280;17465;47.934;33.430;2023-04-01T12:25:56;57293.36;;;-140.43;99.05
30714;BME280;17465;47.934;33.430;2023-04-01T12:28:45;57287.01;;;-140.43;99.35
30714;BME280;17465;47.934;33.430;2023-04-01T12:37:18;57302.89;;;-140.43;97.93
30714;BME280;17465;47.934;33.430;2023-04-01T12:45:45;57272.18;;;-140.43;96.92
30714;BME280;17465;47.934;33.430;2023-04-01T12:51:01;57306.07;;;-140.43;97.12
30714;BME280;17465;47.934;33.430;2023-04-01T12:54:04;57288.07;;;-140.43;96.65
30714;BME280;17465;47.934;33.430;2023-04-01T12:59:53;57307.13;;;-140.43;96.51
30714;BME280;17465;47.934;33.430;2023-04-01T13:05:35;56292.71;;;-140.43;95.79
30714;BME280;17465;47.934;33.430;2023-04-01T13:08:17;57302.89;;;-140.43;95.73
30714;BME280;17465;47.934;33.430;2023-04-01T13:11:25;57293.36;;;-140.43;95.67
30714;BME280;17465;47.934;33.430;2023-04-01T13:17:22;57270.06;;;-140.43;96.92
30714;BME280;17465;47.934;33.430;2023-04-01T13:28:35;57305.01;;;-140.43;100.00
30714;BME280;17465;47.934;33.430;2023-04-01T13:31:26;57277.48;;;-140.43;100.00
30714;BME280;17465;47.934;33.430;2023-04-01T13:34:09;57293.36;;;-140.43;100.00
30714;BME280;17465;47.934;33.430;2023-04-01T13:39:44;57296.54;;;-140.43;100.00
30714;BME280;17465;47.934;33.430;2023-04-01T13:42:23;57305.01;;;-140.43;100.00
30714;BME280;17465;47.934;33.430;2023-04-01T13:45:00;57276.42;;;-140.43;100.00
30714;BME280;17465;47.934;33.430;2023-04-01T14:01:55;57312.43;;;-140.43;100.00
30714;BME280;17465;47.934;33.430;2023-04-01T14:10:45;57290.18;;;-140.43;100.00
30714;BME280;17465;47.934;33.430;2023-04-01T14:18:51;57303.95;;;-140.43;100.00
30714;BME280;17465;47.934;33.430;2023-04-01T14:30:13;57281.71;;;-140.43;99.35
30714;BME280;17465;47.934;33.430;2023-04-01T14:35:35;57293.36;;;-140.43;99.50
30714;BME280;17465;47.934;33.430;2023-04-01T14:38:23;57287.01;;;-140.43;98.52
30714;BME280;17465;47.934;33.430;2023-04-01T14:44:11;57273.24;;;-140.43;99.26
30714;BME280;17465;47.934;33.430;2023-04-01T14:47:14;57294.42;;;-140.43;99.34
30714;BME280;17465;47.934;33.430;2023-04-01T14:49:42;57289.13;;;-140.43;99.47
30714;BME280;17465;47.934;33.430;2023-04-01T14:52:32;57310.31;;;-140.43;99.40
30714;BME280;17465;47.934;33.430;2023-04-01T14:55:01;57283.83;;;-140.43;99.84
30714;BME280;17465;47.934;33.430;2023-04-01T14:57:34;57283.83;;;-140.43;99.84
30714;BME280;17465;47.934;33.430;2023-04-01T15:05:52;57283.83;;;-140.43;98.46
30714;BME280;17465;47.934;33.430;2023-04-01T15:11:04;57275.36;;;-140.43;98.20
30714;BME280;17465;47.934;33.430;2023-04-01T15:16:34;57316.66;;;-140.43;98.41
30714;BME280;17465;47.934;33.430;2023-04-01T15:22:31;57289.13;;;-140.43;98.49
30714;BME280;17465;47.934;33.430;2023-04-01T15:27:59;57277.48;;;-140.43;98.49
30714;BME280;17465;47.934;33.430;2023-04-01T15:30:45;57278.54;;;-140.43;98.15
30714;BME280;17465;47.934;33.430;2023-04-01T15:33:42;57297.60;;;-140.43;97.67
30714;BME280;17465;47.934;33.430;2023-04-01T15:36:27;57275.36;;;-140.43;98.13
30714;BME280;17465;47.934;33.430;2023-04-01T15:39:12;57298.66;;;-140.43;97.48
30714;BME280;17465;47.934;33.430;2023-04-01T15:44:45;57293.36;;;-140.43;98.79
30714;BME280;17465;47.934;33.430;2023-04-01T15:53:09;57283.83;;;-140.43;96.37
30714;BME280;17465;47.934;33.430;2023-04-01T15:55:57;57283.83;;;-140.43;96.37
30714;BME280;17465;47.934;33.430;2023-04-01T16:01:27;57294.42;;;-140.43;96.59
30714;BME280;17465;47.934;33.430;2023-04-01T16:13:00;57280.66;;;-140.43;96.23
30714;BME280;17465;47.934;33.430;2023-04-01T16:15:29;57291.25;;;-140.43;95.51
30714;BME280;17465;47.934;33.430;2023-04-01T16:21:14;57302.89;;;-140.43;96.29
30714;BME280;17465;47.934;33.430;2023-04-01T16:23:58;57302.89;;;-140.43;96.29
30714;BME280;17465;47.934;33.430;2023-04-01T16:26:43;57288.07;;;-140.43;95.04
30714;BME280;17465;47.934;33.430;2023-04-01T16:35:29;57292.30;;;-140.43;95.12
30714;BME280;17465;47.934;33.430;2023-04-01T16:41:11;57297.60;;;-140.43;95.83
30714;BME280;17465;47.934;33.430;2023-04-01T16:46:41;57301.84;;;-140.43;95.35
30714;BME280;17465;47.934;33.430;2023-04-01T16:49:31;57301.84;;;-140.43;95.35
30714;BME280;17465;47.934;33.430;2023-04-01T16:57:56;56328.71;;;-140.43;95.85
30714;BME280;17465;47.934;33.430;2023-04-01T17:00:52;57287.01;;;-140.43;94.75
30714;BME280;17465;47.934;33.430;2023-04-01T17:03:16;57301.84;;;-140.43;94.30
30714;BME280;17465;47.934;33.430;2023-04-01T17:11:19;57287.01;;;-140.43;93.49
30714;BME280;17465;47.934;33.430;2023-04-01T17:25:57;56339.30;;;-140.43;92.86
30714;BME280;17465;47.934;33.430;2023-04-01T17:28:44;57281.71;;;-140.43;92.11
30714;BME280;17465;47.934;33.430;2023-04-01T17:45:32;57280.66;;;-140.43;92.75
30714;BME280;17465;47.934;33.430;2023-04-01T17:54:11;57282.77;;;-140.43;93.87
30714;BME280;17465;47.934;33.430;2023-04-01T17:59:48;57320.90;;;-140.43;94.33
30714;BME280;17465;47.934;33.430;2023-04-01T18:11:22;57285.95;;;-140.43;95.23
30714;BME280;17465;47.934;33.430;2023-04-01T18:22:59;57308.19;;;-140.43;96.03
30714;BME280;17465;47.934;33.430;2023-04-01T18:25:46;57294.42;;;-140.43;95.62
30714;BME280;17465;47.934;33.430;2023-04-01T18:30:57;57297.60;;;-140.43;95.80
30714;BME280;17465;47.934;33.430;2023-04-01T18:36:57;57297.60;;;-140.43;96.72
30714;BME280;17465;47.934;33.430;2023-04-01T18:39:42;57297.60;;;-140.43;96.72
30714;BME280;17465;47.934;33.430;2023-04-01T18:45:33;57273.24;;;-140.43;97.57
30714;BME280;17465;47.934;33.430;2023-04-01T18:47:44;57294.42;;;-140.43;96.96
30714;BME280;17465;47.934;33.430;2023-04-01T18:50:37;57262.65;;;-140.43;96.87
30714;BME280;17465;47.934;33.430;2023-04-01T18:53:42;57262.65;;;-140.43;96.87
30714;BME280;17465;47.934;33.430;2023-04-01T18:56:38;57309.25;;;-140.43;97.79
30714;BME280;17465;47.934;33.430;2023-04-01T19:07:47;57314.55;;;-140.43;97.72
30714;BME280;17465;47.934;33.430;2023-04-01T19:10:43;57289.13;;;-140.43;98.68
30714;BME280;17465;47.934;33.430;2023-04-01T19:22:00;57296.54;;;-140.43;100.00
30714;BME280;17465;47.934;33.430;2023-04-01T19:33:51;57306.07;;;-140.43;100.00
30714;BME280;17465;47.934;33.430;2023-04-01T19:42:05;57295.48;;;-140.43;100.00
30714;BME280;17465;47.934;33.430;2023-04-01T19:44:59;57285.95;;;-140.43;100.00
30714;BME280;17465;47.934;33.430;2023-04-01T19:47:59;57285.95;;;-140.43;100.00
30714;BME280;17465;47.934;33.430;2023-04-01T19:50:57;57298.66;;;-140.43;100.00
30714;BME280;17465;47.934;33.430;2023-04-01T19:53:29;57315.61;;;-140.43;100.00
30714;BME280;17465;47.934;33.430;2023-04-01T19:56:16;57326.20;;;-140.43;100.00
30714;BME280;17465;47.934;33.430;2023-04-01T19:59:09;57277.48;;;-140.43;100.00
30714;BME280;17465;47.934;33.430;2023-04-01T20:01:32;57314.55;;;-140.43;100.00
30714;BME280;17465;47.934;33.430;2023-04-01T20:04:26;57317.72;;;-140.43;100.00
30714;BME280;17465;47.934;33.430;2023-04-01T20:07:04;57261.59;;;-140.43;100.00
30714;BME280;17465;47.934;33.430;2023-04-01T20:15:32;57318.78;;;-140.43;100.00
30714;BME280;17465;47.934;33.430;2023-04-01T20:24:15;57306.07;;;-140.43;100.00
30714;BME280;17465;47.934;33.430;2023-04-01T20:26:51;57299.72;;;-140.43;100.00
30714;BME280;17465;47.934;33.430;2023-04-01T20:29:40;57320.90;;;-140.43;100.00
30714;BME280;17465;47.934;33.430;2023-04-01T20:32:28;57288.07;;;-140.43;100.00
30714;BME280;17465;47.934;33.430;2023-04-01T20:37:49;57292.30;;;-140.43;100.00
30714;BME280;17465;47.934;33.430;2023-04-01T20:40:31;57292.30;;;-140.43;100.00
30714;BME280;17465;47.934;33.430;2023-04-01T20:43:33;57288.07;;;-140.43;100.00
30714;BME280;17465;47.934;33.430;2023-04-01T20:46:19;57288.07;;;-140.43;100.00
30714;BME280;17465;47.934;33.430;2023-04-01T20:57:18;57299.72;;;-140.43;100.00
30714;BME280;17465;47.934;33.430;2023-04-01T21:05:33;57331.49;;;-140.43;100.00
30714;BME280;17465;47.934;33.430;2023-04-01T21:13:46;57303.95;;;-140.43;100.00
30714;BME280;17465;47.934;33.430;2023-04-01T21:17:45;57292.30;;;-140.43;100.00
30714;BME280;17465;47.934;33.430;2023-04-01T21:28:16;57313.48;;;-140.43;100.00
30714;BME280;17465;47.934;33.430;2023-04-01T21:31:01;57313.48;;;-140.43;100.00
30714;BME280;17465;47.934;33.430;2023-04-01T21:33:39;57302.89;;;-140.43;100.00
30714;BME280;17465;47.934;33.430;2023-04-01T21:47:24;57287.01;;;-140.43;100.00
30714;BME280;17465;47.934;33.430;2023-04-01T22:02:09;57335.73;;;-140.43;100.00
30714;BME280;17465;47.934;33.430;2023-04-01T22:08:23;56437.76;;;-140.43;100.00
30714;BME280;17465;47.934;33.430;2023-04-01T22:10:51;57314.55;;;-140.43;100.00
30714;BME280;17465;47.934;33.430;2023-04-01T22:13:39;57275.36;;;-140.43;100.00
30714;BME280;17465;47.934;33.430;2023-04-01T22:19:05;57298.66;;;-140.43;100.00